createdAt,value
2022-08-05T00:00:16.049Z,100632.28
2022-08-05T00:02:50.808Z,100633.03
2022-08-05T00:06:02.984Z,100629.47
2022-08-05T00:08:30.853Z,100634.84
2022-08-05T00:11:00.496Z,100632.41
2022-08-05T00:13:38.066Z,100630.66
2022-08-05T00:16:12.251Z,100619.13
2022-08-05T00:18:44.817Z,100630.06
2022-08-05T00:21:14.417Z,100622.66
2022-08-05T00:23:46.816Z,100611.25
2022-08-05T00:26:22.403Z,100630.22
2022-08-05T00:28:51.412Z,100622.72
2022-08-05T00:31:53.590Z,100623.78
2022-08-05T00:34:56.408Z,100620.38
2022-08-05T00:37:12.745Z,100623.75
2022-08-05T00:39:44.357Z,100623.56
2022-08-05T00:42:32.788Z,100630.91
2022-08-05T00:45:00.960Z,100620.19
2022-08-05T00:47:53.267Z,100614.75
2022-08-05T00:50:18.666Z,100609.31
2022-08-05T00:52:49.202Z,100618.44
2022-08-05T00:55:17.454Z,100609.34
2022-08-05T00:57:58.751Z,100610.53
2022-08-05T01:00:28.299Z,100607.41
2022-08-05T01:02:57.004Z,100616.00
2022-08-05T01:05:27.485Z,100612.53
2022-08-05T01:08:40.885Z,100614.09
2022-08-05T01:10:52.467Z,100614.59
2022-08-05T01:13:27.464Z,100614.63
2022-08-05T01:16:26.139Z,100609.47
2022-08-05T01:19:01.967Z,100614.28
2022-08-05T01:21:50.486Z,100617.09
2022-08-05T01:24:34.219Z,100613.09
2022-08-05T01:27:19.069Z,100608.28
2022-08-05T01:29:54.625Z,100617.41
2022-08-05T01:32:27.709Z,100604.97
2022-08-05T01:34:59.895Z,100617.06
2022-08-05T01:37:36.745Z,100606.13
2022-08-05T01:40:14.072Z,100614.06
2022-08-05T01:42:46.657Z,100610.13
2022-08-05T01:45:17.601Z,100617.38
2022-08-05T01:47:54.598Z,100608.78
2022-08-05T01:50:29.705Z,100615.06
2022-08-05T01:53:01.881Z,100617.69
2022-08-05T01:55:36.288Z,100619.50
2022-08-05T01:58:11.255Z,100613.38
2022-08-05T02:00:48.487Z,100616.31
2022-08-05T02:03:24.189Z,100613.00
2022-08-05T02:05:59.758Z,100604.72
2022-08-05T02:08:31.217Z,100609.34
2022-08-05T02:11:03.695Z,100591.81
2022-08-05T02:13:53.495Z,100604.03
2022-08-05T02:16:27.552Z,100605.50
2022-08-05T02:18:57.394Z,100610.78
2022-08-05T02:21:30.495Z,100611.97
2022-08-05T02:24:19.810Z,100606.84
2022-08-05T02:26:55.642Z,100612.94
2022-08-05T02:29:58.937Z,100609.94
2022-08-05T02:32:24.239Z,100613.72
2022-08-05T02:35:09.723Z,100610.44
2022-08-05T02:37:47.798Z,100612.56
2022-08-05T02:40:24.312Z,100616.84
2022-08-05T02:42:55.354Z,100617.31
2022-08-05T02:45:25.410Z,100614.19
2022-08-05T02:48:06.505Z,100621.41
2022-08-05T02:50:38.361Z,100625.34
2022-08-05T02:53:19.075Z,100625.66
2022-08-05T02:56:00.141Z,100617.69
2022-08-05T02:58:31.783Z,100614.75
2022-08-05T03:01:02.679Z,100622.00
2022-08-05T03:04:02.867Z,100624.13
2022-08-05T03:06:56.735Z,100618.69
2022-08-05T03:09:15.868Z,100624.13
2022-08-05T03:11:57.284Z,100621.47
2022-08-05T03:14:26.840Z,100619.16
2022-08-05T03:16:54.904Z,100627.25
2022-08-05T03:19:33.931Z,100626.41
2022-08-05T03:22:04.709Z,100634.47
2022-08-05T03:24:33.774Z,100624.75
2022-08-05T03:27:03.245Z,100628.38
2022-08-05T03:29:45.185Z,100630.88
2022-08-05T03:32:31.103Z,100631.34
2022-08-05T03:35:01.355Z,100628.91
2022-08-05T03:37:44.763Z,100630.88
2022-08-05T03:40:15.277Z,100630.50
2022-08-05T03:42:52.925Z,100625.22
2022-08-05T03:45:23.071Z,100624.38
2022-08-05T03:47:52.011Z,100612.66
2022-08-05T03:50:30.208Z,100638.47
2022-08-05T03:55:50.630Z,100634.47
2022-08-05T03:56:11.079Z,100638.81
2022-08-05T03:58:44.704Z,100625.44
2022-08-05T04:01:16.447Z,100644.00
2022-08-05T04:04:08.922Z,100648.31
2022-08-05T04:06:47.939Z,100641.25
2022-08-05T04:09:20.312Z,100638.34
2022-08-05T04:11:54.312Z,100633.41
2022-08-05T04:14:29.490Z,100634.78
2022-08-05T04:16:59.475Z,100625.91
2022-08-05T04:19:27.678Z,100633.72
2022-08-05T04:22:08.601Z,100619.72
2022-08-05T04:24:44.150Z,100621.03
2022-08-05T04:27:13.469Z,100627.97
2022-08-05T04:29:41.699Z,100628.16
2022-08-05T04:32:11.016Z,100624.97
2022-08-05T04:34:42.929Z,100623.59
2022-08-05T04:37:12.891Z,100634.16
2022-08-05T04:39:41.017Z,100625.44
2022-08-05T04:42:10.086Z,100630.97
2022-08-05T04:44:39.135Z,100622.38
2022-08-05T04:47:08.766Z,100625.34
2022-08-05T04:50:01.958Z,100621.50
2022-08-05T04:52:27.471Z,100627.91
2022-08-05T04:54:57.279Z,100625.00
2022-08-05T04:57:28.975Z,100623.25
2022-08-05T04:59:58.882Z,100617.22
2022-08-05T05:02:36.203Z,100625.22
2022-08-05T05:05:25.995Z,100619.53
2022-08-05T05:08:00.785Z,100622.31
2022-08-05T05:10:29.622Z,100617.81
2022-08-05T05:12:58.056Z,100616.13
2022-08-05T05:15:56.740Z,100617.94
2022-08-05T05:18:16.592Z,100611.91
2022-08-05T05:20:59.363Z,100620.41
2022-08-05T05:23:39.228Z,100610.66
2022-08-05T05:26:17.817Z,100614.16
2022-08-05T05:28:45.804Z,100608.47
2022-08-05T05:31:13.889Z,100601.75
2022-08-05T05:33:58.708Z,100599.94
2022-08-05T05:36:29.823Z,100609.00
2022-08-05T05:38:59.885Z,100605.16
2022-08-05T05:41:40.874Z,100606.59
2022-08-05T05:44:35.475Z,100598.78
2022-08-05T05:47:04.300Z,100604.56
2022-08-05T05:49:33.082Z,100603.91
2022-08-05T05:52:01.428Z,100608.22
2022-08-05T05:54:50.823Z,100602.47
2022-08-05T05:57:19.649Z,100598.50
2022-08-05T05:59:47.788Z,100610.16
2022-08-05T06:02:17.249Z,100607.44
2022-08-05T06:05:01.362Z,100614.09
2022-08-05T06:07:41.887Z,100614.53
2022-08-05T06:10:12.198Z,100602.25
2022-08-05T06:12:42.296Z,100614.31
2022-08-05T06:15:23.529Z,100609.84
2022-08-05T06:17:54.200Z,100616.53
2022-08-05T06:20:23.203Z,100614.84
2022-08-05T06:22:51.258Z,100608.59
2022-08-05T06:25:25.047Z,100612.13
2022-08-05T06:28:10.685Z,100606.84
2022-08-05T06:30:41.317Z,100610.19
2022-08-05T06:33:10.032Z,100610.81
2022-08-05T06:36:08.187Z,100605.47
2022-08-05T06:38:36.170Z,100598.06
2022-08-05T06:41:07.897Z,100598.94
2022-08-05T06:43:57.506Z,100613.72
2022-08-05T06:46:30.320Z,100597.84
2022-08-05T06:48:59.688Z,100596.72
2022-08-05T06:51:31.094Z,100601.22
2022-08-05T06:54:00.027Z,100602.25
2022-08-05T06:56:29.764Z,100600.72
2022-08-05T06:58:57.930Z,100597.88
2022-08-05T07:01:27.596Z,100600.22
2022-08-05T07:04:00.201Z,100601.41
2022-08-05T07:06:29.206Z,100601.06
2022-08-05T07:08:59.054Z,100603.53
2022-08-05T07:11:28.796Z,100606.97
2022-08-05T07:14:20.507Z,100608.28
2022-08-05T07:18:08.590Z,100602.06
2022-08-05T07:22:37.454Z,100587.31
2022-08-05T07:25:23.831Z,100599.72
2022-08-05T07:27:58.634Z,100607.41
2022-08-05T07:30:33.654Z,100605.16
2022-08-05T07:33:08.807Z,100602.84
2022-08-05T07:36:05.387Z,100600.84
2022-08-05T07:38:32.001Z,100593.41
2022-08-05T07:42:08.760Z,100601.63
2022-08-05T07:43:56.116Z,100601.28
2022-08-05T07:46:26.975Z,100595.22
2022-08-05T07:49:02.857Z,100607.63
2022-08-05T07:51:36.771Z,100598.44
2022-08-05T07:54:08.466Z,100601.63
2022-08-05T07:56:39.152Z,100602.47
2022-08-05T07:59:38.716Z,100597.75
2022-08-05T08:02:16.809Z,100605.94
2022-08-05T08:04:46.508Z,100601.72
2022-08-05T08:07:14.995Z,100609.94
2022-08-05T08:09:43.704Z,100605.13
2022-08-05T08:12:35.457Z,100607.66
2022-08-05T08:15:03.459Z,100606.81
2022-08-05T08:17:35.268Z,100612.34
2022-08-05T08:20:22.414Z,100601.06
2022-08-05T08:22:55.788Z,100601.81
2022-08-05T08:25:26.875Z,100607.13
2022-08-05T08:28:18.928Z,100599.16
2022-08-05T08:31:00.759Z,100597.72
2022-08-05T08:33:30.454Z,100589.03
2022-08-05T08:36:37.510Z,100587.63
2022-08-05T08:38:55.709Z,100594.50
2022-08-05T08:41:52.183Z,100589.00
2022-08-05T08:45:20.786Z,100591.28
2022-08-05T08:47:22.181Z,100578.50
2022-08-05T08:50:23.021Z,100579.28
2022-08-05T08:52:51.430Z,100566.78
2022-08-05T08:56:03.002Z,100561.25
2022-08-05T08:58:10.568Z,100552.88
2022-08-05T09:00:41.710Z,100571.81
2022-08-05T09:03:11.320Z,100560.69
2022-08-05T09:06:07.429Z,100554.56
2022-08-05T09:08:30.321Z,100569.13
2022-08-05T09:10:58.640Z,100568.06
2022-08-05T09:13:31.698Z,100561.09
2022-08-05T09:16:00.249Z,100564.03
2022-08-05T09:18:28.410Z,100571.72
2022-08-05T09:20:59.247Z,100564.84
2022-08-05T09:23:28.848Z,100549.72
2022-08-05T09:26:09.953Z,100546.09
2022-08-05T09:28:40.091Z,100542.69
2022-08-05T09:31:22.173Z,100531.81
2022-08-05T09:34:01.614Z,100546.75
2022-08-05T09:36:54.700Z,100542.41
2022-08-05T09:39:27.871Z,100547.16
2022-08-05T09:42:21.225Z,100544.69
2022-08-05T09:44:56.379Z,100534.22
2022-08-05T09:47:49.003Z,100534.75
2022-08-05T09:50:18.119Z,100550.06
2022-08-05T09:53:04.934Z,100544.16
2022-08-05T09:55:56.198Z,100534.03
2022-08-05T09:58:26.527Z,100528.03
2022-08-05T10:01:01.008Z,100529.97
2022-08-05T10:03:56.768Z,100537.03
2022-08-05T10:06:21.002Z,100532.72
2022-08-05T10:08:55.334Z,100516.63
2022-08-05T10:11:24.102Z,100534.41
2022-08-05T10:13:59.485Z,100516.34
2022-08-05T10:16:34.036Z,100520.75
2022-08-05T10:19:08.593Z,100516.63
2022-08-05T10:21:41.068Z,100508.78
2022-08-05T10:24:13.751Z,100511.00
2022-08-05T10:26:51.441Z,100509.47
2022-08-05T10:29:24.023Z,100509.75
2022-08-05T10:32:52.341Z,100506.16
2022-08-05T10:35:00.954Z,100509.00
2022-08-05T10:37:40.012Z,100497.41
2022-08-05T10:40:28.130Z,100495.88
2022-08-05T10:43:02.654Z,100498.03
2022-08-05T10:45:40.527Z,100484.00
2022-08-05T10:48:38.446Z,100487.56
2022-08-05T10:51:28.458Z,100487.25
2022-08-05T10:54:01.716Z,100480.22
2022-08-05T10:56:46.987Z,100478.56
2022-08-05T11:00:01.849Z,100479.41
2022-08-05T11:02:14.262Z,100471.94
2022-08-05T11:04:57.423Z,100478.56
2022-08-05T11:07:32.930Z,100478.34
2022-08-05T11:10:27.455Z,100466.06
2022-08-05T11:12:58.794Z,100469.16
2022-08-05T11:16:00.326Z,100464.56
2022-08-05T11:18:29.958Z,100460.22
2022-08-05T11:21:06.356Z,100458.47
2022-08-05T11:24:02.807Z,100457.06
2022-08-05T11:26:33.483Z,100465.38
2022-08-05T11:29:12.170Z,100447.13
2022-08-05T11:31:54.299Z,100451.25
2022-08-05T11:34:39.731Z,100453.38
2022-08-05T11:38:30.468Z,100452.06
2022-08-05T11:40:03.102Z,100446.53
2022-08-05T11:42:37.991Z,100440.59
2022-08-05T11:45:14.479Z,100425.69
2022-08-05T11:47:54.870Z,100430.84
2022-08-05T11:50:23.318Z,100432.16
2022-08-05T11:52:57.668Z,100431.50
2022-08-05T11:55:31.812Z,100426.75
2022-08-05T11:58:10.760Z,100427.63
2022-08-05T12:00:44.367Z,100422.25
2022-08-05T12:03:28.448Z,100435.03
2022-08-05T12:05:59.853Z,100424.16
2022-08-05T12:08:28.003Z,100421.25
2022-08-05T12:11:05.419Z,100429.84
2022-08-05T12:13:49.650Z,100420.59
2022-08-05T12:16:25.677Z,100433.47
2022-08-05T12:18:55.536Z,100429.72
2022-08-05T12:21:26.931Z,100415.59
2022-08-05T12:24:05.194Z,100422.44
2022-08-05T12:26:36.858Z,100424.88
2022-08-05T12:29:09.334Z,100428.44
2022-08-05T12:31:42.466Z,100423.97
2022-08-05T12:34:21.108Z,100403.84
2022-08-05T12:36:51.151Z,100420.13
2022-08-05T12:39:20.349Z,100413.19
2022-08-05T12:41:48.741Z,100400.66
2022-08-05T12:44:32.572Z,100401.28
2022-08-05T12:47:03.909Z,100392.28
2022-08-05T12:50:03.253Z,100400.22
2022-08-05T12:52:39.487Z,100395.81
2022-08-05T12:55:22.075Z,100392.91
2022-08-05T12:58:50.870Z,100396.78
2022-08-05T13:02:02.931Z,100401.56
2022-08-05T13:03:33.741Z,100396.56
2022-08-05T13:06:08.394Z,100393.81
2022-08-05T13:08:40.216Z,100389.63
2022-08-05T13:11:09.014Z,100386.84
2022-08-05T13:14:06.643Z,100384.97
2022-08-05T13:16:28.186Z,100374.13
2022-08-05T13:18:58.877Z,100386.50
2022-08-05T13:21:28.326Z,100380.22
2022-08-05T13:24:08.892Z,100381.03
2022-08-05T13:26:37.139Z,100376.41
2022-08-05T13:29:05.945Z,100372.78
2022-08-05T13:32:04.179Z,100372.94
2022-08-05T13:34:25.863Z,100364.47
2022-08-05T13:36:55.600Z,100350.97
2022-08-05T13:40:14.394Z,100354.81
2022-08-05T13:42:14.630Z,100360.72
2022-08-05T13:44:45.898Z,100350.13
2022-08-05T13:47:34.818Z,100354.59
2022-08-05T13:50:06.852Z,100348.69
2022-08-05T13:52:39.413Z,100348.28
2022-08-05T13:55:10.016Z,100350.03
2022-08-05T13:57:50.702Z,100351.06
2022-08-05T14:00:26.903Z,100356.59
2022-08-05T14:02:56.771Z,100350.38
2022-08-05T14:05:47.892Z,100344.31
2022-08-05T14:08:21.253Z,100346.41
2022-08-05T14:11:03.190Z,100344.06
2022-08-05T14:13:44.245Z,100337.13
2022-08-05T14:16:16.964Z,100335.44
2022-08-05T14:18:47.163Z,100325.78
2022-08-05T14:22:07.883Z,100329.03
2022-08-05T14:24:05.634Z,100323.16
2022-08-05T14:26:38.726Z,100313.94
2022-08-05T14:29:15.954Z,100318.19
2022-08-05T14:32:03.061Z,100318.72
2022-08-05T14:34:35.427Z,100298.13
2022-08-05T14:37:05.933Z,100305.28
2022-08-05T14:39:49.692Z,100314.44
2022-08-05T14:42:23.505Z,100301.66
2022-08-05T14:44:53.766Z,100308.59
2022-08-05T14:47:58.314Z,100302.91
2022-08-05T14:50:18.117Z,100308.34
2022-08-05T14:52:57.779Z,100309.34
2022-08-05T14:55:38.536Z,100304.84
2022-08-05T14:58:11.927Z,100299.03
2022-08-05T15:00:59.770Z,100308.88
2022-08-05T15:03:34.017Z,100302.38
2022-08-05T15:06:15.391Z,100298.34
2022-08-05T15:08:59.688Z,100296.22
2022-08-05T15:11:51.752Z,100290.19
2022-08-05T15:14:35.659Z,100288.72
2022-08-05T15:17:10.038Z,100291.19
2022-08-05T15:19:57.505Z,100285.28
2022-08-05T15:22:27.299Z,100291.63
2022-08-05T15:24:59.297Z,100283.66
2022-08-05T15:27:32.105Z,100289.66
2022-08-05T15:30:05.735Z,100291.81
2022-08-05T15:32:33.839Z,100270.19
2022-08-05T15:35:09.792Z,100278.50
2022-08-05T15:38:34.854Z,100280.13
2022-08-05T15:41:00.015Z,100288.63
2022-08-05T15:43:19.787Z,100276.47
2022-08-05T15:46:00.066Z,100275.94
2022-08-05T15:48:30.060Z,100276.69
2022-08-05T15:51:03.486Z,100285.16
2022-08-05T15:53:38.522Z,100282.22
2022-08-05T15:56:20.156Z,100277.19
2022-08-05T15:58:48.689Z,100281.88
2022-08-05T16:01:19.081Z,100277.63
2022-08-05T16:03:50.810Z,100275.16
2022-08-05T16:06:20.940Z,100272.16
2022-08-05T16:08:55.266Z,100278.66
2022-08-05T16:11:42.952Z,100268.22
2022-08-05T16:14:17.529Z,100272.47
2022-08-05T16:16:46.461Z,100281.28
2022-08-05T16:19:18.809Z,100272.53
2022-08-05T16:22:00.559Z,100266.91
2022-08-05T16:24:39.879Z,100276.16
2022-08-05T16:27:15.744Z,100272.41
2022-08-05T16:29:50.097Z,100267.97
2022-08-05T16:32:28.522Z,100272.41
2022-08-05T16:34:58.750Z,100276.00
2022-08-05T16:38:03.553Z,100270.63
2022-08-05T16:40:24.840Z,100277.19
2022-08-05T16:42:58.416Z,100268.78
2022-08-05T16:46:04.819Z,100276.94
2022-08-05T16:48:26.193Z,100265.22
2022-08-05T16:51:02.128Z,100282.38
2022-08-05T16:54:02.377Z,100276.63
2022-08-05T16:56:20.061Z,100277.56
2022-08-05T16:58:49.650Z,100286.22
2022-08-05T17:01:18.794Z,100291.38
2022-08-05T17:03:47.259Z,100286.94
2022-08-05T17:06:16.774Z,100289.75
2022-08-05T17:08:53.627Z,100290.56
2022-08-05T17:11:23.910Z,100282.03
2022-08-05T17:14:05.665Z,100293.91
2022-08-05T17:16:36.433Z,100286.13
2022-08-05T17:19:07.278Z,100290.88
2022-08-05T17:21:36.944Z,100292.75
2022-08-05T17:24:19.830Z,100292.63
2022-08-05T17:26:55.369Z,100294.25
2022-08-05T17:29:33.071Z,100297.03
2022-08-05T17:32:02.313Z,100294.31
2022-08-05T17:34:32.073Z,100293.59
2022-08-05T17:37:00.739Z,100300.34
2022-08-05T17:39:34.424Z,100302.88
2022-08-05T17:42:18.348Z,100298.06
2022-08-05T17:44:51.649Z,100300.72
2022-08-05T17:47:22.238Z,100298.41
2022-08-05T17:50:00.122Z,100307.13
2022-08-05T17:52:33.393Z,100298.22
2022-08-05T17:55:03.078Z,100303.50
2022-08-05T17:57:31.420Z,100312.06
2022-08-05T18:00:04.718Z,100313.63
2022-08-05T18:02:34.262Z,100317.59
2022-08-05T18:05:06.345Z,100316.25
2022-08-05T18:07:41.147Z,100317.59
2022-08-05T18:10:20.286Z,100318.09
2022-08-05T18:12:49.739Z,100317.78
2022-08-05T18:15:19.353Z,100319.66
2022-08-05T18:17:59.195Z,100318.94
2022-08-05T18:20:31.481Z,100331.94
2022-08-05T18:23:09.546Z,100326.84
2022-08-05T18:25:44.934Z,100331.41
2022-08-05T18:28:16.433Z,100329.00
2022-08-05T18:30:50.917Z,100329.06
2022-08-05T18:33:22.506Z,100338.13
2022-08-05T18:36:03.556Z,100333.44
2022-08-05T18:38:35.983Z,100332.84
2022-08-05T18:41:56.289Z,100326.69
2022-08-05T18:43:52.793Z,100335.78
2022-08-05T18:46:22.185Z,100337.47
2022-08-05T18:48:54.409Z,100345.91
2022-08-05T18:52:04.620Z,100343.84
2022-08-05T18:54:28.589Z,100349.22
2022-08-05T18:56:59.890Z,100348.22
2022-08-05T18:59:42.694Z,100358.50
2022-08-05T19:02:28.299Z,100352.34
2022-08-05T19:06:06.183Z,100357.53
2022-08-05T19:07:58.252Z,100352.59
2022-08-05T19:10:28.677Z,100346.63
2022-08-05T19:12:57.036Z,100354.44
2022-08-05T19:15:58.765Z,100347.25
2022-08-05T19:18:20.760Z,100353.66
2022-08-05T19:20:52.509Z,100347.06
2022-08-05T19:24:04.140Z,100342.56
2022-08-05T19:26:09.516Z,100341.34
2022-08-05T19:28:41.539Z,100343.63
2022-08-05T19:31:12.973Z,100323.94
2022-08-05T19:33:48.566Z,100345.69
2022-08-05T19:36:25.588Z,100348.34
2022-08-05T19:38:55.203Z,100343.00
2022-08-05T19:41:34.714Z,100338.47
2022-08-05T19:44:18.479Z,100344.66
2022-08-05T19:46:46.980Z,100349.56
2022-08-05T19:49:17.624Z,100352.84
2022-08-05T19:52:04.791Z,100344.81
2022-08-05T19:54:35.725Z,100353.84
2022-08-05T19:57:09.084Z,100349.78
2022-08-05T20:00:00.658Z,100344.00
2022-08-05T20:02:27.541Z,100349.94
2022-08-05T20:04:58.552Z,100341.34
2022-08-05T20:07:47.503Z,100350.34
2022-08-05T20:10:15.834Z,100347.06
2022-08-05T20:12:48.298Z,100343.56
2022-08-05T20:15:23.165Z,100346.44
2022-08-05T20:18:10.532Z,100339.25
2022-08-05T20:20:56.261Z,100330.63
2022-08-05T20:23:42.285Z,100332.66
2022-08-05T20:26:15.175Z,100337.16
2022-08-05T20:28:45.334Z,100332.88
2022-08-05T20:31:13.464Z,100336.94
2022-08-05T20:33:44.754Z,100330.16
2022-08-05T20:36:16.485Z,100332.00
2022-08-05T20:38:53.377Z,100333.00
2022-08-05T20:41:24.069Z,100330.53
2022-08-05T20:43:58.590Z,100328.91
2022-08-05T20:46:30.097Z,100335.66
2022-08-05T20:48:58.106Z,100328.44
2022-08-05T20:51:27.921Z,100330.72
2022-08-05T20:53:57.135Z,100324.34
2022-08-05T20:56:34.042Z,100329.66
2022-08-05T20:59:11.384Z,100327.38
2022-08-05T21:01:48.086Z,100325.53
2022-08-05T21:04:18.688Z,100322.88
2022-08-05T21:06:48.131Z,100319.19
2022-08-05T21:09:16.196Z,100322.88
2022-08-05T21:12:09.643Z,100309.56
2022-08-05T21:14:34.884Z,100308.34
2022-08-05T21:17:05.390Z,100301.78
2022-08-05T21:19:47.311Z,100314.88
2022-08-05T21:22:23.352Z,100316.47
2022-08-05T21:24:52.780Z,100320.16
2022-08-05T21:27:25.373Z,100324.06
2022-08-05T21:29:56.083Z,100320.38
2022-08-05T21:32:27.164Z,100314.44
2022-08-05T21:35:09.104Z,100319.75
2022-08-05T21:37:52.996Z,100316.06
2022-08-05T21:40:22.203Z,100297.53
2022-08-05T21:42:53.482Z,100314.78
2022-08-05T21:45:24.497Z,100308.78
2022-08-05T21:48:08.248Z,100315.72
2022-08-05T21:50:36.772Z,100311.03
2022-08-05T21:53:16.466Z,100315.34
2022-08-05T21:56:04.909Z,100308.16
2022-08-05T21:58:34.092Z,100309.19
2022-08-05T22:01:05.721Z,100307.09
2022-08-05T22:03:48.862Z,100314.03
2022-08-05T22:06:22.564Z,100307.06
2022-08-05T22:08:53.060Z,100315.69
2022-08-05T22:11:34.948Z,100309.09
2022-08-05T22:14:33.836Z,100308.25
2022-08-05T22:16:56.035Z,100308.38
2022-08-05T22:20:01.791Z,100314.75
2022-08-05T22:22:12.883Z,100320.81
2022-08-05T22:25:03.693Z,100304.88
2022-08-05T22:28:11.057Z,100311.78
2022-08-05T22:30:37.655Z,100309.06
2022-08-05T22:33:56.543Z,100295.75
2022-08-05T22:36:14.335Z,100306.56
2022-08-05T22:38:43.287Z,100305.38
2022-08-05T22:41:12.738Z,100304.75
2022-08-05T22:43:43.183Z,100302.31
2022-08-05T22:46:12.021Z,100300.47
2022-08-05T22:48:41.413Z,100295.78
2022-08-05T22:51:15.916Z,100298.25
2022-08-05T22:53:51.884Z,100299.69
2022-08-05T22:56:30.272Z,100296.41
2022-08-05T22:58:59.997Z,100286.78
2022-08-05T23:02:04.497Z,100300.53
2022-08-05T23:04:19.280Z,100298.69
2022-08-05T23:06:47.823Z,100293.13
2022-08-05T23:09:27.570Z,100289.25
2022-08-05T23:12:06.145Z,100286.31
2022-08-05T23:14:34.144Z,100296.28
2022-08-05T23:17:24.372Z,100292.25
2022-08-05T23:20:02.272Z,100283.66
2022-08-05T23:22:31.079Z,100292.44
2022-08-05T23:24:59.816Z,100287.31
2022-08-05T23:27:42.272Z,100286.13
2022-08-05T23:30:11.900Z,100297.81
2022-08-05T23:32:40.719Z,100294.28
2022-08-05T23:35:13.268Z,100287.69
2022-08-05T23:37:41.478Z,100290.28
2022-08-05T23:40:12.095Z,100297.84
2022-08-05T23:42:47.443Z,100290.28
2022-08-05T23:45:23.739Z,100283.13
2022-08-05T23:47:53.575Z,100281.50
2022-08-05T23:50:22.116Z,100285.97
2022-08-05T23:52:54.588Z,100287.78
2022-08-05T23:55:24.728Z,100282.44
2022-08-05T23:58:00.613Z,100279.78
